Terminal Aerodrome Forecast
Issued by NWS Wakefield, VA

Home | Current Version | Previous Version | Text Only | Print | Product List | Glossary On
Versions: 1 2 3 4 5 6 7 8 9 10 11 12 13 14 15
511
FTUS41 KAKQ 221120
TAFRIC
TAF
KRIC 221120Z 2212/2312 15005KT P6SM SCT250
     FM221700 16006KT P6SM BKN200
     FM222300 12004KT P6SM BKN200=

USA.gov is the U.S. government's official web portal to all federal, state and local government web resources and services.